sensor_id;sensor_type;location;lat;lon;timestamp;pressure;altitude;pressure_sealevel;temperature;humidity
30073;BME280;16897;52.422;13.678;2023-01-04T00:02:37;102267.50;;;5.87;54.54
30073;BME280;16897;52.422;13.678;2023-01-04T00:06:39;102255.47;;;5.82;54.62
30073;BME280;16897;52.422;13.678;2023-01-04T00:10:40;102231.38;;;5.73;54.51
30073;BME280;16897;52.422;13.678;2023-01-04T00:14:42;102220.16;;;5.73;54.51
30073;BME280;16897;52.422;13.678;2023-01-04T00:18:48;102199.53;;;5.62;54.59
30073;BME280;16897;52.422;13.678;2023-01-04T00:22:50;102233.81;;;5.86;54.64
30073;BME280;16897;52.422;13.678;2023-01-04T00:26:52;102221.78;;;5.82;54.48
30073;BME280;16897;52.422;13.678;2023-01-04T00:30:54;102221.75;;;5.83;54.46
30073;BME280;16897;52.422;13.678;2023-01-04T00:34:56;102206.31;;;5.72;54.43
30073;BME280;16897;52.422;13.678;2023-01-04T00:39:00;102214.88;;;5.79;54.50
30073;BME280;16897;52.422;13.678;2023-01-04T00:43:07;102174.47;;;5.63;54.53
30073;BME280;16897;52.422;13.678;2023-01-04T00:47:17;102140.13;;;5.44;54.45
30073;BME280;16897;52.422;13.678;2023-01-04T00:51:19;102179.63;;;5.67;54.58
30073;BME280;16897;52.422;13.678;2023-01-04T00:55:28;102156.31;;;5.63;54.58
30073;BME280;16897;52.422;13.678;2023-01-04T00:59:30;102163.13;;;5.71;54.51
30073;BME280;16897;52.422;13.678;2023-01-04T01:03:32;102146.78;;;5.66;54.54
30073;BME280;16897;52.422;13.678;2023-01-04T01:07:35;102149.28;;;5.72;54.53
30073;BME280;16897;52.422;13.678;2023-01-04T01:11:37;102120.94;;;5.60;54.68
30073;BME280;16897;52.422;13.678;2023-01-04T01:15:49;102120.00;;;5.66;54.64
30073;BME280;16897;52.422;13.678;2023-01-04T01:19:51;102117.47;;;5.63;54.62
30073;BME280;16897;52.422;13.678;2023-01-04T01:23:54;102144.13;;;5.71;54.55
30073;BME280;16897;52.422;13.678;2023-01-04T01:28:00;102124.44;;;5.58;54.53
30073;BME280;16897;52.422;13.678;2023-01-04T01:32:02;102102.13;;;5.44;54.73
30073;BME280;16897;52.422;13.678;2023-01-04T01:36:04;102140.72;;;5.67;54.69
30073;BME280;16897;52.422;13.678;2023-01-04T01:40:12;102099.50;;;5.49;54.75
30073;BME280;16897;52.422;13.678;2023-01-04T01:45:00;102132.97;;;5.66;54.89
30073;BME280;16897;52.422;13.678;2023-01-04T01:53:34;102121.75;;;5.65;54.86
30073;BME280;16897;52.422;13.678;2023-01-04T01:57:41;102116.59;;;5.62;54.94
30073;BME280;16897;52.422;13.678;2023-01-04T02:01:47;102122.53;;;5.72;55.06
30073;BME280;16897;52.422;13.678;2023-01-04T02:05:53;102083.09;;;5.47;54.78
30073;BME280;16897;52.422;13.678;2023-01-04T02:09:57;102104.47;;;5.66;54.89
30073;BME280;16897;52.422;13.678;2023-01-04T02:14:04;102113.00;;;5.72;54.96
30073;BME280;16897;52.422;13.678;2023-01-04T02:18:35;102096.69;;;5.66;54.77
30073;BME280;16897;52.422;13.678;2023-01-04T02:27:59;102091.41;;;5.72;54.85
30073;BME280;16897;52.422;13.678;2023-01-04T02:32:42;102051.75;;;5.67;55.05
30073;BME280;16897;52.422;13.678;2023-01-04T02:45:12;102020.72;;;5.62;54.89
30073;BME280;16897;52.422;13.678;2023-01-04T02:49:17;102027.50;;;5.71;54.82
30073;BME280;16897;52.422;13.678;2023-01-04T02:53:39;101996.53;;;5.63;55.10
30073;BME280;16897;52.422;13.678;2023-01-04T03:03:02;101981.72;;;5.71;54.98
30073;BME280;16897;52.422;13.678;2023-01-04T03:12:07;101986.06;;;5.69;55.10
30073;BME280;16897;52.422;13.678;2023-01-04T03:16:31;101980.00;;;5.70;55.13
30073;BME280;16897;52.422;13.678;2023-01-04T03:20:35;101959.34;;;5.67;54.91
30073;BME280;16897;52.422;13.678;2023-01-04T03:24:41;101961.03;;;5.67;54.99
30073;BME280;16897;52.422;13.678;2023-01-04T03:29:19;101940.41;;;5.61;55.05
30073;BME280;16897;52.422;13.678;2023-01-04T03:33:49;101942.97;;;5.64;55.05
30073;BME280;16897;52.422;13.678;2023-01-04T03:43:16;101913.66;;;5.62;55.27
30073;BME280;16897;52.422;13.678;2023-01-04T03:47:58;101904.94;;;5.66;55.24
30073;BME280;16897;52.422;13.678;2023-01-04T03:52:20;101903.91;;;5.76;55.12
30073;BME280;16897;52.422;13.678;2023-01-04T03:56:28;101900.34;;;5.82;55.23
30073;BME280;16897;52.422;13.678;2023-01-04T04:00:32;101875.41;;;5.74;55.52
30073;BME280;16897;52.422;13.678;2023-01-04T04:04:40;101871.00;;;5.81;55.50
30073;BME280;16897;52.422;13.678;2023-01-04T04:09:01;101867.44;;;5.87;55.34
30073;BME280;16897;52.422;13.678;2023-01-04T04:13:03;101857.06;;;5.87;55.53
30073;BME280;16897;52.422;13.678;2023-01-04T04:17:05;101828.63;;;5.84;55.41
30073;BME280;16897;52.422;13.678;2023-01-04T04:21:06;101858.69;;;5.94;55.63
30073;BME280;16897;52.422;13.678;2023-01-04T04:25:08;101795.19;;;5.67;55.46
30073;BME280;16897;52.422;13.678;2023-01-04T04:29:17;101831.91;;;5.95;55.43
30073;BME280;16897;52.422;13.678;2023-01-04T04:33:19;101826.66;;;5.96;55.57
30073;BME280;16897;52.422;13.678;2023-01-04T04:37:25;101796.63;;;5.85;55.76
30073;BME280;16897;52.422;13.678;2023-01-04T04:41:32;101800.81;;;5.92;55.74
30073;BME280;16897;52.422;13.678;2023-01-04T04:45:40;101780.91;;;5.94;55.75
30073;BME280;16897;52.422;13.678;2023-01-04T04:49:49;101783.38;;;6.02;55.62
30073;BME280;16897;52.422;13.678;2023-01-04T04:53:51;101772.22;;;5.98;55.83
30073;BME280;16897;52.422;13.678;2023-01-04T04:57:56;101766.13;;;6.01;55.83
30073;BME280;16897;52.422;13.678;2023-01-04T05:01:58;101750.50;;;6.02;55.61
30073;BME280;16897;52.422;13.678;2023-01-04T05:06:00;101725.41;;;6.06;55.88
30073;BME280;16897;52.422;13.678;2023-01-04T05:10:03;101719.31;;;6.07;55.91
30073;BME280;16897;52.422;13.678;2023-01-04T05:14:04;101723.50;;;6.14;55.81
30073;BME280;16897;52.422;13.678;2023-01-04T05:18:12;101707.03;;;6.16;55.97
30073;BME280;16897;52.422;13.678;2023-01-04T05:22:14;101671.09;;;6.00;55.81
30073;BME280;16897;52.422;13.678;2023-01-04T05:26:26;101672.50;;;6.13;55.95
30073;BME280;16897;52.422;13.678;2023-01-04T05:30:27;101669.72;;;6.22;55.88
30073;BME280;16897;52.422;13.678;2023-01-04T05:34:48;101659.31;;;6.24;55.99
30073;BME280;16897;52.422;13.678;2023-01-04T05:38:49;101623.19;;;6.16;56.15
30073;BME280;16897;52.422;13.678;2023-01-04T05:42:51;101595.66;;;6.10;56.04
30073;BME280;16897;52.422;13.678;2023-01-04T05:46:53;101632.94;;;6.42;56.14
30073;BME280;16897;52.422;13.678;2023-01-04T05:50:55;101614.72;;;6.45;56.32
30073;BME280;16897;52.422;13.678;2023-01-04T05:55:01;101605.06;;;6.52;56.13
30073;BME280;16897;52.422;13.678;2023-01-04T05:59:06;101575.09;;;6.40;56.38
30073;BME280;16897;52.422;13.678;2023-01-04T06:03:08;101581.63;;;6.55;56.32
30073;BME280;16897;52.422;13.678;2023-01-04T06:07:16;101497.13;;;6.10;56.23
30073;BME280;16897;52.422;13.678;2023-01-04T06:11:18;101513.09;;;6.29;56.16
30073;BME280;16897;52.422;13.678;2023-01-04T06:15:21;101559.78;;;6.63;56.42
30073;BME280;16897;52.422;13.678;2023-01-04T06:19:23;101549.22;;;6.70;56.44
30073;BME280;16897;52.422;13.678;2023-01-04T06:23:24;101454.50;;;6.20;56.36
30073;BME280;16897;52.422;13.678;2023-01-04T06:27:27;101552.34;;;6.84;56.46
30073;BME280;16897;52.422;13.678;2023-01-04T06:31:29;101547.06;;;6.87;56.60
30073;BME280;16897;52.422;13.678;2023-01-04T06:35:31;101540.88;;;6.91;56.44
30073;BME280;16897;52.422;13.678;2023-01-04T06:39:32;101486.16;;;6.68;56.56
30073;BME280;16897;52.422;13.678;2023-01-04T06:43:34;101456.88;;;6.62;56.68
30073;BME280;16897;52.422;13.678;2023-01-04T06:47:35;101513.97;;;6.95;56.56
30073;BME280;16897;52.422;13.678;2023-01-04T06:51:37;101487.00;;;6.99;56.65
30073;BME280;16897;52.422;13.678;2023-01-04T06:55:38;101480.13;;;6.98;56.61
30073;BME280;16897;52.422;13.678;2023-01-04T06:59:40;101469.53;;;7.04;56.69
30073;BME280;16897;52.422;13.678;2023-01-04T07:03:44;101472.09;;;7.07;56.49
30073;BME280;16897;52.422;13.678;2023-01-04T07:07:46;101465.88;;;7.12;56.72
30073;BME280;16897;52.422;13.678;2023-01-04T07:11:48;101432.44;;;7.01;56.67
30073;BME280;16897;52.422;13.678;2023-01-04T07:15:49;101451.78;;;7.20;56.78
30073;BME280;16897;52.422;13.678;2023-01-04T07:19:51;101434.50;;;7.19;56.58
30073;BME280;16897;52.422;13.678;2023-01-04T07:23:53;101420.56;;;7.22;56.74
30073;BME280;16897;52.422;13.678;2023-01-04T07:27:55;101421.00;;;7.36;56.57
30073;BME280;16897;52.422;13.678;2023-01-04T07:31:57;101409.47;;;7.45;56.64
30073;BME280;16897;52.422;13.678;2023-01-04T07:36:04;101410.25;;;7.48;56.72
30073;BME280;16897;52.422;13.678;2023-01-04T07:40:06;101407.34;;;7.58;56.59
30073;BME280;16897;52.422;13.678;2023-01-04T07:44:09;101401.06;;;7.65;56.71
30073;BME280;16897;52.422;13.678;2023-01-04T07:48:11;101395.75;;;7.68;56.94
30073;BME280;16897;52.422;13.678;2023-01-04T07:52:13;101379.94;;;7.74;56.78
30073;BME280;16897;52.422;13.678;2023-01-04T07:56:15;101400.16;;;7.92;57.03
30073;BME280;16897;52.422;13.678;2023-01-04T08:00:17;101341.88;;;7.73;56.78
30073;BME280;16897;52.422;13.678;2023-01-04T08:04:22;101366.72;;;8.07;56.85
30073;BME280;16897;52.422;13.678;2023-01-04T08:08:27;101364.59;;;8.18;56.89
30073;BME280;16897;52.422;13.678;2023-01-04T08:12:29;101337.94;;;8.11;57.07
30073;BME280;16897;52.422;13.678;2023-01-04T08:16:34;101327.31;;;8.17;57.06
30073;BME280;16897;52.422;13.678;2023-01-04T08:20:37;101332.13;;;8.28;57.14
30073;BME280;16897;52.422;13.678;2023-01-04T08:24:38;101331.88;;;8.36;57.22
30073;BME280;16897;52.422;13.678;2023-01-04T08:28:40;101265.94;;;8.12;57.20
30073;BME280;16897;52.422;13.678;2023-01-04T08:32:42;101298.88;;;8.36;57.18
30073;BME280;16897;52.422;13.678;2023-01-04T08:36:50;101312.44;;;8.46;57.29
30073;BME280;16897;52.422;13.678;2023-01-04T08:40:55;101294.16;;;8.48;57.28
30073;BME280;16897;52.422;13.678;2023-01-04T08:44:57;101261.78;;;8.31;57.41
30073;BME280;16897;52.422;13.678;2023-01-04T08:49:01;101294.16;;;8.48;57.33
30073;BME280;16897;52.422;13.678;2023-01-04T08:53:03;101286.03;;;8.57;57.43
30073;BME280;16897;52.422;13.678;2023-01-04T08:57:04;101268.81;;;8.53;57.44
30073;BME280;16897;52.422;13.678;2023-01-04T09:01:10;101281.25;;;8.68;57.65
30073;BME280;16897;52.422;13.678;2023-01-04T09:05:21;101266.22;;;8.75;57.67
30073;BME280;16897;52.422;13.678;2023-01-04T09:09:23;101292.09;;;8.79;57.73
30073;BME280;16897;52.422;13.678;2023-01-04T09:13:24;101250.13;;;8.65;57.62
30073;BME280;16897;52.422;13.678;2023-01-04T09:17:26;101258.50;;;8.73;57.80
30073;BME280;16897;52.422;13.678;2023-01-04T09:21:28;101276.03;;;8.90;57.82
30073;BME280;16897;52.422;13.678;2023-01-04T09:25:41;101206.47;;;8.50;57.85
30073;BME280;16897;52.422;13.678;2023-01-04T09:30:15;101209.97;;;8.49;57.75
30073;BME280;16897;52.422;13.678;2023-01-04T09:34:39;101175.41;;;8.45;57.63
30073;BME280;16897;52.422;13.678;2023-01-04T09:38:55;101210.47;;;8.80;57.82
30073;BME280;16897;52.422;13.678;2023-01-04T09:43:24;101247.69;;;9.04;58.14
30073;BME280;16897;52.422;13.678;2023-01-04T09:48:27;101100.44;;;8.31;57.95
30073;BME280;16897;52.422;13.678;2023-01-04T09:53:10;101203.59;;;9.00;57.98
30073;BME280;16897;52.422;13.678;2023-01-04T09:57:36;101177.56;;;9.00;58.01
30073;BME280;16897;52.422;13.678;2023-01-04T10:01:50;101178.09;;;9.08;58.17
30073;BME280;16897;52.422;13.678;2023-01-04T10:05:55;101186.56;;;9.13;58.17
30073;BME280;16897;52.422;13.678;2023-01-04T10:09:58;101171.69;;;9.15;58.13
30073;BME280;16897;52.422;13.678;2023-01-04T10:18:44;101161.03;;;9.21;58.11
30073;BME280;16897;52.422;13.678;2023-01-04T10:32:40;101123.28;;;9.30;58.25
30073;BME280;16897;52.422;13.678;2023-01-04T10:36:43;101105.91;;;9.30;58.12
30073;BME280;16897;52.422;13.678;2023-01-04T10:40:47;101090.25;;;9.30;58.13
30073;BME280;16897;52.422;13.678;2023-01-04T10:49:16;101092.34;;;9.43;58.18
30073;BME280;16897;52.422;13.678;2023-01-04T10:53:57;101070.84;;;9.38;58.51
30073;BME280;16897;52.422;13.678;2023-01-04T11:02:49;101061.06;;;9.43;58.61
30073;BME280;16897;52.422;13.678;2023-01-04T11:07:50;101060.63;;;9.52;58.36
30073;BME280;16897;52.422;13.678;2023-01-04T11:11:46;101034.66;;;9.50;58.49
30073;BME280;16897;52.422;13.678;2023-01-04T11:15:47;100976.72;;;9.25;58.54
30073;BME280;16897;52.422;13.678;2023-01-04T11:19:49;101022.09;;;9.59;58.53
30073;BME280;16897;52.422;13.678;2023-01-04T11:23:51;101008.50;;;9.52;58.62
30073;BME280;16897;52.422;13.678;2023-01-04T11:28:14;101020.03;;;9.65;58.51
30073;BME280;16897;52.422;13.678;2023-01-04T11:33:23;101000.38;;;9.58;58.68
30073;BME280;16897;52.422;13.678;2023-01-04T11:41:28;100940.28;;;9.42;58.68
30073;BME280;16897;52.422;13.678;2023-01-04T11:45:30;100968.03;;;9.62;58.68
30073;BME280;16897;52.422;13.678;2023-01-04T11:49:38;100969.06;;;9.77;58.67
30073;BME280;16897;52.422;13.678;2023-01-04T11:53:49;100968.84;;;9.82;58.59
30073;BME280;16897;52.422;13.678;2023-01-04T11:58:11;100963.56;;;9.83;58.75
30073;BME280;16897;52.422;13.678;2023-01-04T12:02:30;100947.16;;;9.81;58.65
30073;BME280;16897;52.422;13.678;2023-01-04T12:06:44;100937.41;;;9.85;58.86
30073;BME280;16897;52.422;13.678;2023-01-04T12:10:47;100921.84;;;9.83;58.75
30073;BME280;16897;52.422;13.678;2023-01-04T12:14:52;100933.28;;;9.98;58.83
30073;BME280;16897;52.422;13.678;2023-01-04T12:18:54;100918.63;;;9.95;59.08
30073;BME280;16897;52.422;13.678;2023-01-04T12:22:56;100914.94;;;10.00;58.76
30073;BME280;16897;52.422;13.678;2023-01-04T12:27:00;100899.34;;;9.98;58.87
30073;BME280;16897;52.422;13.678;2023-01-04T12:36:00;100903.72;;;10.15;58.91
30073;BME280;16897;52.422;13.678;2023-01-04T12:44:58;100902.72;;;10.17;58.92
30073;BME280;16897;52.422;13.678;2023-01-04T12:54:01;100868.06;;;10.15;58.97
30073;BME280;16897;52.422;13.678;2023-01-04T13:02:40;100854.53;;;10.25;58.87
30073;BME280;16897;52.422;13.678;2023-01-04T13:06:52;100863.00;;;10.30;58.96
30073;BME280;16897;52.422;13.678;2023-01-04T13:11:00;100857.53;;;10.34;58.95
30073;BME280;16897;52.422;13.678;2023-01-04T13:15:12;100847.16;;;10.33;58.97
30073;BME280;16897;52.422;13.678;2023-01-04T13:19:23;100845.16;;;10.38;59.02
30073;BME280;16897;52.422;13.678;2023-01-04T13:23:27;100848.59;;;10.38;59.12
30073;BME280;16897;52.422;13.678;2023-01-04T13:27:30;100828.50;;;10.40;59.04
30073;BME280;16897;52.422;13.678;2023-01-04T13:31:48;100826.66;;;10.43;59.17
30073;BME280;16897;52.422;13.678;2023-01-04T13:36:09;100824.13;;;10.41;59.02
30073;BME280;16897;52.422;13.678;2023-01-04T13:40:29;100802.63;;;10.36;59.03
30073;BME280;16897;52.422;13.678;2023-01-04T13:45:04;100810.13;;;10.42;59.21
30073;BME280;16897;52.422;13.678;2023-01-04T13:49:14;100793.56;;;10.43;59.28
30073;BME280;16897;52.422;13.678;2023-01-04T13:53:21;100802.72;;;10.50;59.32
30073;BME280;16897;52.422;13.678;2023-01-04T13:57:22;100771.06;;;10.40;59.27
30073;BME280;16897;52.422;13.678;2023-01-04T14:01:34;100799.97;;;10.53;59.48
30073;BME280;16897;52.422;13.678;2023-01-04T14:05:52;100762.22;;;10.43;59.45
30073;BME280;16897;52.422;13.678;2023-01-04T14:10:00;100785.16;;;10.54;59.46
30073;BME280;16897;52.422;13.678;2023-01-04T14:14:03;100770.50;;;10.51;59.40
30073;BME280;16897;52.422;13.678;2023-01-04T14:18:29;100784.13;;;10.56;59.39
30073;BME280;16897;52.422;13.678;2023-01-04T14:22:39;100772.69;;;10.59;59.34
30073;BME280;16897;52.422;13.678;2023-01-04T14:26:41;100752.81;;;10.56;59.38
30073;BME280;16897;52.422;13.678;2023-01-04T14:35:10;100770.66;;;10.64;59.54
30073;BME280;16897;52.422;13.678;2023-01-04T14:39:22;100749.78;;;10.64;59.73
30073;BME280;16897;52.422;13.678;2023-01-04T14:43:43;100736.78;;;10.62;59.58
30073;BME280;16897;52.422;13.678;2023-01-04T14:47:45;100733.66;;;10.72;59.46
30073;BME280;16897;52.422;13.678;2023-01-04T14:51:54;100745.53;;;10.77;59.55
30073;BME280;16897;52.422;13.678;2023-01-04T14:55:57;100688.03;;;10.47;59.44
30073;BME280;16897;52.422;13.678;2023-01-04T15:00:11;100725.16;;;10.68;59.68
30073;BME280;16897;52.422;13.678;2023-01-04T15:04:13;100719.50;;;10.76;59.67
30073;BME280;16897;52.422;13.678;2023-01-04T15:08:14;100721.00;;;10.80;59.84
30073;BME280;16897;52.422;13.678;2023-01-04T15:12:16;100717.13;;;10.87;59.57
30073;BME280;16897;52.422;13.678;2023-01-04T15:16:18;100722.09;;;10.92;59.58
30073;BME280;16897;52.422;13.678;2023-01-04T15:20:19;100695.66;;;10.82;59.62
30073;BME280;16897;52.422;13.678;2023-01-04T15:24:21;100691.78;;;10.89;59.66
30073;BME280;16897;52.422;13.678;2023-01-04T15:28:23;100701.09;;;10.93;59.64
30073;BME280;16897;52.422;13.678;2023-01-04T15:32:27;100694.13;;;10.94;59.64
30073;BME280;16897;52.422;13.678;2023-01-04T15:36:28;100694.44;;;11.03;59.79
30073;BME280;16897;52.422;13.678;2023-01-04T15:40:30;100687.84;;;10.96;59.83
30073;BME280;16897;52.422;13.678;2023-01-04T15:44:32;100702.09;;;11.06;59.72
30073;BME280;16897;52.422;13.678;2023-01-04T15:48:35;100687.25;;;11.07;59.79
30073;BME280;16897;52.422;13.678;2023-01-04T15:52:37;100691.94;;;11.16;59.96
30073;BME280;16897;52.422;13.678;2023-01-04T15:56:39;100680.84;;;11.13;59.90
30073;BME280;16897;52.422;13.678;2023-01-04T16:00:40;100665.16;;;11.13;59.78
30073;BME280;16897;52.422;13.678;2023-01-04T16:04:42;100670.78;;;11.21;59.86
30073;BME280;16897;52.422;13.678;2023-01-04T16:08:56;100643.88;;;11.19;59.94
30073;BME280;16897;52.422;13.678;2023-01-04T16:13:04;100625.09;;;11.12;59.93
30073;BME280;16897;52.422;13.678;2023-01-04T16:17:11;100651.94;;;11.30;59.98
30073;BME280;16897;52.422;13.678;2023-01-04T16:21:13;100639.97;;;11.26;60.06
30073;BME280;16897;52.422;13.678;2023-01-04T16:25:20;100638.47;;;11.36;59.84
30073;BME280;16897;52.422;13.678;2023-01-04T16:29:21;100634.78;;;11.40;59.94
30073;BME280;16897;52.422;13.678;2023-01-04T16:33:25;100627.69;;;11.42;59.87
30073;BME280;16897;52.422;13.678;2023-01-04T16:37:31;100614.94;;;11.36;59.92
30073;BME280;16897;52.422;13.678;2023-01-04T16:41:33;100623.94;;;11.46;59.93
30073;BME280;16897;52.422;13.678;2023-01-04T16:45:35;100564.34;;;11.23;59.99
30073;BME280;16897;52.422;13.678;2023-01-04T16:49:36;100559.13;;;11.23;59.96
30073;BME280;16897;52.422;13.678;2023-01-04T16:53:44;100591.72;;;11.46;60.22
30073;BME280;16897;52.422;13.678;2023-01-04T16:57:46;100588.63;;;11.54;59.99
30073;BME280;16897;52.422;13.678;2023-01-04T17:01:47;100566.31;;;11.48;60.08
30073;BME280;16897;52.422;13.678;2023-01-04T17:05:54;100568.63;;;11.52;60.00
30073;BME280;16897;52.422;13.678;2023-01-04T17:09:56;100553.81;;;11.53;60.18
30073;BME280;16897;52.422;13.678;2023-01-04T17:13:58;100543.22;;;11.55;60.06
30073;BME280;16897;52.422;13.678;2023-01-04T17:18:11;100546.59;;;11.57;60.02
30073;BME280;16897;52.422;13.678;2023-01-04T17:22:18;100553.50;;;11.58;60.21
30073;BME280;16897;52.422;13.678;2023-01-04T17:26:24;100539.19;;;11.63;60.09
30073;BME280;16897;52.422;13.678;2023-01-04T17:30:26;100540.06;;;11.64;60.07
30073;BME280;16897;52.422;13.678;2023-01-04T17:34:28;100531.56;;;11.60;60.07
30073;BME280;16897;52.422;13.678;2023-01-04T17:38:30;100543.75;;;11.74;60.37
30073;BME280;16897;52.422;13.678;2023-01-04T17:42:32;100518.34;;;11.76;60.17
30073;BME280;16897;52.422;13.678;2023-01-04T17:46:38;100516.47;;;11.78;60.27
30073;BME280;16897;52.422;13.678;2023-01-04T17:50:39;100494.38;;;11.69;60.38
30073;BME280;16897;52.422;13.678;2023-01-04T17:54:41;100506.31;;;11.73;60.28
30073;BME280;16897;52.422;13.678;2023-01-04T17:58:45;100487.78;;;11.77;60.29
30073;BME280;16897;52.422;13.678;2023-01-04T18:02:54;100500.38;;;11.84;60.22
30073;BME280;16897;52.422;13.678;2023-01-04T18:06:56;100480.97;;;11.74;60.19
30073;BME280;16897;52.422;13.678;2023-01-04T18:10:57;100488.53;;;11.79;60.25
30073;BME280;16897;52.422;13.678;2023-01-04T18:15:06;100493.88;;;11.91;60.27
30073;BME280;16897;52.422;13.678;2023-01-04T18:19:08;100487.59;;;11.94;60.18
30073;BME280;16897;52.422;13.678;2023-01-04T18:23:10;100491.03;;;11.94;60.15
30073;BME280;16897;52.422;13.678;2023-01-04T18:27:16;100499.31;;;12.01;60.21
30073;BME280;16897;52.422;13.678;2023-01-04T18:31:21;100408.91;;;11.56;60.34
30073;BME280;16897;52.422;13.678;2023-01-04T18:35:28;100470.94;;;11.95;60.17
30073;BME280;16897;52.422;13.678;2023-01-04T18:39:29;100467.81;;;12.03;60.27
30073;BME280;16897;52.422;13.678;2023-01-04T18:43:36;100483.25;;;12.07;60.25
30073;BME280;16897;52.422;13.678;2023-01-04T18:47:37;100482.19;;;12.10;60.34
30073;BME280;16897;52.422;13.678;2023-01-04T18:51:40;100403.56;;;11.84;60.22
30073;BME280;16897;52.422;13.678;2023-01-04T18:55:42;100424.88;;;11.92;60.17
30073;BME280;16897;52.422;13.678;2023-01-04T18:59:44;100487.34;;;12.24;60.33
30073;BME280;16897;52.422;13.678;2023-01-04T19:03:50;100466.22;;;12.27;60.35
30073;BME280;16897;52.422;13.678;2023-01-04T19:07:52;100447.06;;;12.27;60.26
30073;BME280;16897;52.422;13.678;2023-01-04T19:11:53;100448.09;;;12.24;60.32
30073;BME280;16897;52.422;13.678;2023-01-04T19:15:58;100443.69;;;12.25;60.23
30073;BME280;16897;52.422;13.678;2023-01-04T19:20:05;100447.25;;;12.36;60.34
30073;BME280;16897;52.422;13.678;2023-01-04T19:24:12;100432.19;;;12.40;60.16
30073;BME280;16897;52.422;13.678;2023-01-04T19:28:15;100459.00;;;12.44;60.27
30073;BME280;16897;52.422;13.678;2023-01-04T19:32:18;100352.50;;;11.79;60.10
30073;BME280;16897;52.422;13.678;2023-01-04T19:36:21;100444.78;;;12.48;60.26
30073;BME280;16897;52.422;13.678;2023-01-04T19:40:24;100377.19;;;12.14;60.16
30073;BME280;16897;52.422;13.678;2023-01-04T19:44:31;100432.91;;;12.55;60.21
30073;BME280;16897;52.422;13.678;2023-01-04T19:48:33;100415.00;;;12.49;60.19
30073;BME280;16897;52.422;13.678;2023-01-04T19:52:38;100386.63;;;12.30;60.12
30073;BME280;16897;52.422;13.678;2023-01-04T19:56:40;100423.19;;;12.57;60.17
30073;BME280;16897;52.422;13.678;2023-01-04T20:00:47;100417.31;;;12.53;60.19
30073;BME280;16897;52.422;13.678;2023-01-04T20:04:55;100392.56;;;12.45;60.34
30073;BME280;16897;52.422;13.678;2023-01-04T20:08:57;100415.03;;;12.61;60.19
30073;BME280;16897;52.422;13.678;2023-01-04T20:12:59;100391.75;;;12.57;60.20
30073;BME280;16897;52.422;13.678;2023-01-04T20:17:01;100404.94;;;12.68;60.37
30073;BME280;16897;52.422;13.678;2023-01-04T20:21:08;100347.56;;;12.39;60.23
30073;BME280;16897;52.422;13.678;2023-01-04T20:25:10;100384.81;;;12.69;60.25
30073;BME280;16897;52.422;13.678;2023-01-04T20:29:16;100389.53;;;12.76;60.23
30073;BME280;16897;52.422;13.678;2023-01-04T20:33:19;100379.78;;;12.78;60.31
30073;BME280;16897;52.422;13.678;2023-01-04T20:37:21;100370.25;;;12.77;60.24
30073;BME280;16897;52.422;13.678;2023-01-04T20:41:24;100374.53;;;12.78;60.41
30073;BME280;16897;52.422;13.678;2023-01-04T20:45:31;100374.94;;;12.85;60.34
30073;BME280;16897;52.422;13.678;2023-01-04T20:49:32;100382.47;;;12.90;60.40
30073;BME280;16897;52.422;13.678;2023-01-04T20:53:39;100368.78;;;12.86;60.36
30073;BME280;16897;52.422;13.678;2023-01-04T20:57:41;100363.75;;;12.83;60.37
30073;BME280;16897;52.422;13.678;2023-01-04T21:01:43;100379.53;;;12.94;60.41
30073;BME280;16897;52.422;13.678;2023-01-04T21:05:52;100365.81;;;12.91;60.37
30073;BME280;16897;52.422;13.678;2023-01-04T21:09:59;100378.38;;;12.98;60.36
30073;BME280;16897;52.422;13.678;2023-01-04T21:14:00;100333.06;;;12.72;60.39
30073;BME280;16897;52.422;13.678;2023-01-04T21:18:07;100365.63;;;12.94;60.31
30073;BME280;16897;52.422;13.678;2023-01-04T21:22:12;100379.09;;;13.00;60.34
30073;BME280;16897;52.422;13.678;2023-01-04T21:26:18;100373.84;;;13.00;60.45
30073;BME280;16897;52.422;13.678;2023-01-04T21:30:27;100373.53;;;13.05;60.39
30073;BME280;16897;52.422;13.678;2023-01-04T21:34:28;100341.16;;;12.93;60.41
30073;BME280;16897;52.422;13.678;2023-01-04T21:38:31;100356.47;;;12.99;60.40
30073;BME280;16897;52.422;13.678;2023-01-04T21:42:33;100355.72;;;13.10;60.28
30073;BME280;16897;52.422;13.678;2023-01-04T21:46:35;100333.25;;;13.06;60.39
30073;BME280;16897;52.422;13.678;2023-01-04T21:50:37;100315.19;;;12.90;60.36
30073;BME280;16897;52.422;13.678;2023-01-04T21:54:38;100363.97;;;13.04;60.32
30073;BME280;16897;52.422;13.678;2023-01-04T21:58:40;100369.66;;;13.11;60.36
30073;BME280;16897;52.422;13.678;2023-01-04T22:02:42;100382.63;;;13.12;60.43
30073;BME280;16897;52.422;13.678;2023-01-04T22:06:43;100367.13;;;13.09;60.37
30073;BME280;16897;52.422;13.678;2023-01-04T22:10:52;100368.16;;;13.06;60.41
30073;BME280;16897;52.422;13.678;2023-01-04T22:14:58;100365.47;;;13.08;60.34
30073;BME280;16897;52.422;13.678;2023-01-04T22:19:04;100360.22;;;13.08;60.32
30073;BME280;16897;52.422;13.678;2023-01-04T22:23:05;100286.81;;;12.71;60.27
30073;BME280;16897;52.422;13.678;2023-01-04T22:27:07;100341.34;;;13.03;60.50
30073;BME280;16897;52.422;13.678;2023-01-04T22:31:12;100339.28;;;12.95;60.38
30073;BME280;16897;52.422;13.678;2023-01-04T22:35:14;100352.56;;;13.05;60.46
30073;BME280;16897;52.422;13.678;2023-01-04T22:39:23;100309.56;;;12.83;60.43
30073;BME280;16897;52.422;13.678;2023-01-04T22:43:25;100337.16;;;13.00;60.35
30073;BME280;16897;52.422;13.678;2023-01-04T22:47:27;100351.75;;;13.04;60.37